createdAt,value
2022-08-10T00:00:50.590Z,95.32
2022-08-10T00:01:45.705Z,94.03
2022-08-10T00:02:41.922Z,94.35
2022-08-10T00:03:36.793Z,93.82
2022-08-10T00:04:32.190Z,94.67
2022-08-10T00:05:27.549Z,94.12
2022-08-10T00:06:24.730Z,97.36
2022-08-10T00:07:18.917Z,95.30
2022-08-10T00:08:22.543Z,94.76
2022-08-10T00:09:10.903Z,95.41
2022-08-10T00:10:05.130Z,95.14
2022-08-10T00:11:01.814Z,94.25
2022-08-10T00:11:56.697Z,92.47
2022-08-10T00:12:53.529Z,93.09
2022-08-10T00:13:47.751Z,93.30
2022-08-10T00:14:43.031Z,95.11
2022-08-10T00:15:52.919Z,93.61
2022-08-10T00:16:34.141Z,90.37
2022-08-10T00:17:28.184Z,87.71
2022-08-10T00:18:34.697Z,86.53
2022-08-10T00:19:19.265Z,85.72
2022-08-10T00:20:13.309Z,85.64
2022-08-10T00:21:08.457Z,85.99
2022-08-10T00:22:04.376Z,89.21
2022-08-10T00:22:59.669Z,91.56
2022-08-10T00:23:55.486Z,90.37
2022-08-10T00:24:50.563Z,92.88
2022-08-10T00:25:45.718Z,94.14
2022-08-10T00:27:50.041Z,92.37
2022-08-10T00:28:02.114Z,92.16
2022-08-10T00:28:33.691Z,91.76
2022-08-10T00:29:27.726Z,89.59
2022-08-10T00:30:22.952Z,85.64
2022-08-10T00:31:18.124Z,84.34
2022-08-10T00:32:13.259Z,85.90
2022-08-10T00:33:09.730Z,85.29
2022-08-10T00:34:04.872Z,83.00
2022-08-10T00:35:00.692Z,82.02
2022-08-10T00:35:55.899Z,81.22
2022-08-10T00:36:51.068Z,81.14
2022-08-10T00:37:56.402Z,81.94
2022-08-10T00:38:43.094Z,82.75
2022-08-10T00:39:39.562Z,85.90
2022-08-10T00:40:37.206Z,88.36
2022-08-10T00:41:29.332Z,88.73
2022-08-10T00:42:23.395Z,89.02
2022-08-10T00:43:23.761Z,89.40
2022-08-10T00:44:14.447Z,88.92
2022-08-10T00:45:08.571Z,88.92
2022-08-10T00:46:03.580Z,89.59
2022-08-10T00:46:58.587Z,89.30
2022-08-10T00:47:53.607Z,88.45
2022-08-10T00:48:49.532Z,88.26
2022-08-10T00:49:45.577Z,89.40
2022-08-10T00:50:39.792Z,89.69
2022-08-10T00:51:47.984Z,88.64
2022-08-10T00:52:32.216Z,87.99
2022-08-10T00:53:26.362Z,86.08
2022-08-10T00:54:24.012Z,85.37
2022-08-10T00:55:17.219Z,85.46
2022-08-10T00:57:14.916Z,87.16
2022-08-10T00:57:18.071Z,87.80
2022-08-10T00:58:03.735Z,87.99
2022-08-10T00:58:57.774Z,86.35
2022-08-10T00:59:59.340Z,85.72
2022-08-10T01:00:48.962Z,86.26
2022-08-10T01:02:09.620Z,85.46
2022-08-10T01:02:39.279Z,83.83
2022-08-10T01:04:54.622Z,84.60
2022-08-10T01:04:57.285Z,85.11
2022-08-10T01:05:24.621Z,84.68
2022-08-10T01:06:18.816Z,84.34
2022-08-10T01:07:14.060Z,85.03
2022-08-10T01:08:09.091Z,85.81
2022-08-10T01:09:04.194Z,85.72
2022-08-10T01:09:59.177Z,87.25
2022-08-10T01:10:58.501Z,86.43
2022-08-10T01:12:40.869Z,83.08
2022-08-10T01:12:49.756Z,81.06
2022-08-10T01:13:43.640Z,82.02
2022-08-10T01:14:38.619Z,83.24
2022-08-10T01:15:33.750Z,82.67
2022-08-10T01:16:28.875Z,81.70
2022-08-10T01:17:23.987Z,82.67
2022-08-10T01:18:20.590Z,83.91
2022-08-10T01:19:14.741Z,83.75
2022-08-10T01:20:09.914Z,84.68
2022-08-10T01:21:06.156Z,86.26
2022-08-10T01:22:01.021Z,89.40
2022-08-10T01:22:56.224Z,88.83
2022-08-10T01:23:51.518Z,88.73
2022-08-10T01:24:47.329Z,89.98
2022-08-10T01:26:11.092Z,89.69
2022-08-10T01:26:40.760Z,88.45
2022-08-10T01:27:32.799Z,88.83
2022-08-10T01:28:28.614Z,89.40
2022-08-10T01:29:23.756Z,91.36
2022-08-10T01:30:18.967Z,91.96
2022-08-10T01:31:15.277Z,92.88
2022-08-10T01:32:10.422Z,90.46
2022-08-10T01:33:06.269Z,90.37
2022-08-10T01:34:02.580Z,89.11
2022-08-10T01:34:56.543Z,87.52
2022-08-10T01:35:51.577Z,87.25
2022-08-10T01:36:46.570Z,87.07
2022-08-10T01:37:51.863Z,88.36
2022-08-10T01:38:41.154Z,89.98
2022-08-10T01:39:36.190Z,89.98
2022-08-10T01:40:31.369Z,90.27
2022-08-10T01:41:27.167Z,91.86
2022-08-10T01:42:23.328Z,92.88
2022-08-10T01:43:18.103Z,92.06
2022-08-10T01:44:13.234Z,91.16
2022-08-10T01:45:09.208Z,89.59
2022-08-10T01:46:04.193Z,88.26
2022-08-10T01:46:59.317Z,86.98
2022-08-10T01:47:55.169Z,88.45
2022-08-10T01:48:50.338Z,90.86
2022-08-10T01:49:45.590Z,93.51
2022-08-10T01:50:53.407Z,94.78
2022-08-10T01:51:38.118Z,95.21
2022-08-10T01:52:33.133Z,96.18
2022-08-10T01:53:28.189Z,98.68
2022-08-10T01:54:24.826Z,98.16
2022-08-10T01:55:18.995Z,97.53
2022-08-10T01:56:14.958Z,94.25
2022-08-10T01:57:10.071Z,93.40
2022-08-10T01:58:05.190Z,95.03
2022-08-10T01:59:01.056Z,96.07
2022-08-10T02:00:02.133Z,97.08
2022-08-10T02:00:53.110Z,97.30
2022-08-10T02:01:47.176Z,95.41
2022-08-10T02:02:42.299Z,92.78
2022-08-10T02:04:04.129Z,89.88
2022-08-10T02:04:33.386Z,90.46
2022-08-10T02:05:27.460Z,90.37
2022-08-10T02:06:22.445Z,90.96
2022-08-10T02:07:17.450Z,92.78
2022-08-10T02:08:12.484Z,92.06
2022-08-10T02:09:07.835Z,89.69
2022-08-10T02:10:02.607Z,88.83
2022-08-10T02:10:57.774Z,89.98
2022-08-10T02:12:05.107Z,90.56
2022-08-10T02:12:49.463Z,95.00
2022-08-10T02:13:43.671Z,94.67
2022-08-10T02:14:40.064Z,95.87
2022-08-10T02:15:35.197Z,95.21
2022-08-10T02:16:31.034Z,95.21
2022-08-10T02:17:57.748Z,95.76
2022-08-10T02:18:22.433Z,99.57
2022-08-10T02:19:17.695Z,104.10
2022-08-10T02:20:12.326Z,104.56
2022-08-10T02:21:07.518Z,106.49
2022-08-10T02:22:36.818Z,104.04
2022-08-10T02:23:00.091Z,101.88
2022-08-10T02:23:54.342Z,99.04
2022-08-10T02:24:50.570Z,97.87
2022-08-10T02:25:44.659Z,99.86
2022-08-10T02:26:39.869Z,103.91
2022-08-10T02:27:34.974Z,102.32
2022-08-10T02:28:31.081Z,99.86
2022-08-10T02:29:25.069Z,99.86
2022-08-10T02:30:20.143Z,100.35
2022-08-10T02:31:15.153Z,100.59
2022-08-10T02:32:10.321Z,100.65
2022-08-10T02:33:05.354Z,101.38
2022-08-10T02:34:00.417Z,100.11
2022-08-10T02:34:55.438Z,100.83
2022-08-10T02:35:55.417Z,100.95
2022-08-10T02:36:46.609Z,102.06
2022-08-10T02:37:40.595Z,99.33
2022-08-10T02:38:58.065Z,98.63
2022-08-10T02:39:35.331Z,100.17
2022-08-10T02:42:17.961Z,101.69
2022-08-10T02:45:13.777Z,100.83
2022-08-10T02:45:19.191Z,98.45
2022-08-10T02:45:20.984Z,99.81
2022-08-10T02:45:26.073Z,97.42
2022-08-10T02:45:26.983Z,100.77
2022-08-10T02:46:00.757Z,99.45
2022-08-10T02:46:54.858Z,99.33
2022-08-10T02:47:52.169Z,99.51
2022-08-10T02:48:45.099Z,101.26
2022-08-10T02:49:44.354Z,101.75
2022-08-10T02:50:39.529Z,107.66
2022-08-10T02:52:06.451Z,108.01
2022-08-10T02:52:31.026Z,113.60
2022-08-10T02:53:56.650Z,119.88
2022-08-10T02:54:21.153Z,116.70
2022-08-10T02:55:17.917Z,114.38
2022-08-10T02:56:10.248Z,121.63
2022-08-10T02:57:05.341Z,124.44
2022-08-10T02:58:15.298Z,118.86
2022-08-10T02:58:56.422Z,116.05
2022-08-10T02:59:50.432Z,116.53
2022-08-10T03:00:45.593Z,111.03
2022-08-10T03:01:40.553Z,106.56
2022-08-10T03:02:35.744Z,103.26
2022-08-10T03:03:30.582Z,101.88
2022-08-10T03:04:55.214Z,96.63
2022-08-10T03:05:21.643Z,94.92
2022-08-10T03:06:15.728Z,94.17
2022-08-10T03:07:10.823Z,94.55
2022-08-10T03:08:06.108Z,96.79
2022-08-10T03:09:01.239Z,98.92
2022-08-10T03:09:56.397Z,102.69
2022-08-10T03:10:51.700Z,102.63
2022-08-10T03:12:35.315Z,97.76
2022-08-10T03:12:42.768Z,95.54
2022-08-10T03:13:36.830Z,91.86
2022-08-10T03:14:33.299Z,89.11
2022-08-10T03:15:28.425Z,88.45
2022-08-10T03:16:23.416Z,87.34
2022-08-10T03:17:18.533Z,83.49
2022-08-10T03:18:13.543Z,79.67
2022-08-10T03:20:03.974Z,80.44
2022-08-10T03:20:36.870Z,79.90
2022-08-10T03:20:59.713Z,80.28
2022-08-10T03:21:53.752Z,82.50
2022-08-10T03:22:48.833Z,83.33
2022-08-10T03:23:43.953Z,80.67
2022-08-10T03:24:39.121Z,80.36
2022-08-10T03:25:34.253Z,83.33
2022-08-10T03:26:29.347Z,84.94
2022-08-10T03:27:24.443Z,84.68
2022-08-10T03:28:20.795Z,82.83
2022-08-10T03:29:15.601Z,79.97
2022-08-10T03:30:29.801Z,80.75
2022-08-10T03:31:06.952Z,81.46
2022-08-10T03:32:01.141Z,82.91
2022-08-10T03:32:57.065Z,81.86
2022-08-10T03:33:52.233Z,82.10
2022-08-10T03:34:47.491Z,82.58
2022-08-10T03:35:43.720Z,83.33
2022-08-10T03:36:44.925Z,85.37
2022-08-10T03:37:35.716Z,87.43
2022-08-10T03:38:29.897Z,88.54
2022-08-10T03:39:25.331Z,90.07
2022-08-10T03:40:21.032Z,92.68
2022-08-10T03:41:17.258Z,95.11
2022-08-10T03:42:11.992Z,97.76
2022-08-10T03:43:07.285Z,103.14
2022-08-10T03:44:02.626Z,101.38
2022-08-10T03:44:58.255Z,102.13
2022-08-10T03:45:55.470Z,100.35
2022-08-10T03:46:48.727Z,94.98
2022-08-10T03:47:43.746Z,94.57
2022-08-10T03:48:49.153Z,93.19
2022-08-10T03:49:34.972Z,93.40
2022-08-10T03:50:51.398Z,92.68
2022-08-10T03:51:25.686Z,93.51
2022-08-10T03:52:19.935Z,95.87
2022-08-10T03:53:25.105Z,95.87
2022-08-10T03:54:12.169Z,94.57
2022-08-10T03:55:06.409Z,94.82
2022-08-10T03:56:29.705Z,96.02
2022-08-10T03:56:59.240Z,97.02
2022-08-10T03:57:54.057Z,96.96
2022-08-10T03:58:49.202Z,94.33
2022-08-10T03:59:44.524Z,94.39
2022-08-10T04:00:40.147Z,94.57
2022-08-10T04:02:42.273Z,93.30
2022-08-10T04:02:44.345Z,91.96
2022-08-10T04:03:29.304Z,91.66
2022-08-10T04:04:24.517Z,92.16
2022-08-10T04:05:17.142Z,92.16
2022-08-10T04:06:12.465Z,90.17
2022-08-10T04:07:08.696Z,91.16
2022-08-10T04:08:03.921Z,92.99
2022-08-10T04:08:59.729Z,95.00
2022-08-10T04:09:56.441Z,94.46
2022-08-10T04:10:50.439Z,94.46
2022-08-10T04:11:45.629Z,94.35
2022-08-10T04:12:40.490Z,94.35
2022-08-10T04:13:39.153Z,95.65
2022-08-10T04:14:44.963Z,95.65
2022-08-10T04:15:30.199Z,95.65
2022-08-10T04:16:25.247Z,94.03
2022-08-10T04:17:59.507Z,93.93
2022-08-10T04:18:16.996Z,95.11
2022-08-10T04:19:11.338Z,99.39
2022-08-10T04:20:06.956Z,105.22
2022-08-10T04:21:02.317Z,104.89
2022-08-10T04:21:57.661Z,102.13
2022-08-10T04:22:54.103Z,100.65
2022-08-10T04:23:53.053Z,101.69
2022-08-10T04:24:45.162Z,102.63
2022-08-10T04:25:40.506Z,104.30
2022-08-10T04:26:35.866Z,104.17
2022-08-10T04:27:31.701Z,104.75
2022-08-10T04:28:27.012Z,104.30
2022-08-10T04:29:22.373Z,107.59
2022-08-10T04:30:17.732Z,105.95
2022-08-10T04:31:13.782Z,105.82
2022-08-10T04:32:09.110Z,108.01
2022-08-10T04:33:04.617Z,108.57
2022-08-10T04:34:00.224Z,110.88
2022-08-10T04:34:56.623Z,115.17
2022-08-10T04:35:51.444Z,120.49
2022-08-10T04:36:46.784Z,119.45
2022-08-10T04:37:46.694Z,119.28
2022-08-10T04:38:38.846Z,122.88
2022-08-10T04:39:33.324Z,128.76
2022-08-10T04:40:30.958Z,133.82
2022-08-10T04:41:25.121Z,136.34
2022-08-10T04:42:20.538Z,134.14
2022-08-10T04:43:16.195Z,134.68
2022-08-10T04:44:11.677Z,138.03
2022-08-10T04:45:07.070Z,140.59
2022-08-10T04:46:03.805Z,119.20
2022-08-10T04:46:59.918Z,111.77
2022-08-10T04:48:00.354Z,109.93
2022-08-10T04:49:01.594Z,114.06
2022-08-10T04:49:56.462Z,124.91
2022-08-10T04:50:41.205Z,125.09
2022-08-10T04:51:35.047Z,129.76
2022-08-10T04:52:30.156Z,132.55
2022-08-10T04:53:25.156Z,143.36
2022-08-10T04:54:20.407Z,146.90
2022-08-10T04:55:15.482Z,148.33
2022-08-10T04:56:10.535Z,149.26
2022-08-10T04:57:05.524Z,151.02
2022-08-10T04:58:00.625Z,149.26
2022-08-10T04:58:55.662Z,150.34
2022-08-10T04:59:50.661Z,156.40
2022-08-10T05:00:45.685Z,151.43
2022-08-10T05:02:29.182Z,150.74
2022-08-10T05:02:36.934Z,153.38
2022-08-10T05:03:31.243Z,150.88
2022-08-10T05:04:36.278Z,153.52
2022-08-10T05:05:23.063Z,159.38
2022-08-10T05:06:17.924Z,157.43
2022-08-10T05:07:16.368Z,164.41
2022-08-10T05:08:09.616Z,166.04
2022-08-10T05:09:05.019Z,153.94
2022-08-10T05:10:05.391Z,165.06
2022-08-10T05:10:56.773Z,174.19
2022-08-10T05:11:52.489Z,169.59
2022-08-10T05:12:47.882Z,163.60
2022-08-10T05:13:43.390Z,170.46
2022-08-10T05:14:38.653Z,175.84
2022-08-10T05:15:34.302Z,185.21
2022-08-10T05:16:31.883Z,190.03
2022-08-10T05:17:25.130Z,199.26
2022-08-10T05:18:20.657Z,204.22
2022-08-10T05:19:16.053Z,203.72
2022-08-10T05:20:11.611Z,208.11
2022-08-10T05:21:07.048Z,210.51
2022-08-10T05:22:04.588Z,201.71
2022-08-10T05:22:57.837Z,193.62
2022-08-10T05:23:53.328Z,199.14
2022-08-10T05:24:52.586Z,194.19
2022-08-10T05:25:48.035Z,195.35
2022-08-10T05:27:09.128Z,193.50
2022-08-10T05:27:39.073Z,191.25
2022-08-10T05:28:35.116Z,185.73
2022-08-10T05:29:28.277Z,179.63
2022-08-10T05:30:23.338Z,187.53
2022-08-10T05:31:22.451Z,194.08
2022-08-10T05:32:15.372Z,198.54
2022-08-10T05:33:09.973Z,191.25
2022-08-10T05:34:05.195Z,196.52
2022-08-10T05:35:01.800Z,189.92
2022-08-10T05:35:57.991Z,184.60
2022-08-10T05:36:51.720Z,182.98
2022-08-10T05:38:10.636Z,185.42
2022-08-10T05:38:43.783Z,196.05
2022-08-10T05:39:38.183Z,206.93
2022-08-10T05:40:33.531Z,220.12
2022-08-10T05:41:28.548Z,229.51
2022-08-10T05:42:23.631Z,214.22
2022-08-10T05:43:18.653Z,218.79
2022-08-10T05:44:13.826Z,220.41
2022-08-10T05:45:08.879Z,220.86
2022-08-10T05:46:18.082Z,227.91
2022-08-10T05:46:59.993Z,216.20
2022-08-10T05:48:40.711Z,216.77
2022-08-10T05:48:59.549Z,229.99
2022-08-10T05:49:46.538Z,240.79
2022-08-10T05:50:40.610Z,234.26
2022-08-10T05:51:35.644Z,224.33
2022-08-10T05:52:30.687Z,242.21
2022-08-10T05:54:00.910Z,253.64
2022-08-10T05:54:21.787Z,259.25
2022-08-10T05:55:17.229Z,270.58
2022-08-10T05:56:11.503Z,259.45
2022-08-10T05:57:06.563Z,267.49
2022-08-10T05:58:01.578Z,266.40
2022-08-10T05:58:56.631Z,261.73
2022-08-10T06:00:29.530Z,260.27
2022-08-10T06:00:50.187Z,254.42
2022-08-10T06:01:41.812Z,239.21
2022-08-10T06:02:36.749Z,235.44
2022-08-10T06:03:31.811Z,233.26
2022-08-10T06:04:26.833Z,240.97
2022-08-10T06:05:21.861Z,240.09
2022-08-10T06:06:18.302Z,246.77
2022-08-10T06:07:11.893Z,244.93
2022-08-10T06:08:06.954Z,239.39
2022-08-10T06:09:02.253Z,235.60
2022-08-10T06:09:59.050Z,230.64
2022-08-10T06:12:24.725Z,232.60
2022-08-10T06:12:27.437Z,235.10
2022-08-10T06:12:55.382Z,238.34
2022-08-10T06:13:59.699Z,236.28
2022-08-10T06:14:36.762Z,233.43
2022-08-10T06:15:51.892Z,232.10
2022-08-10T06:16:26.909Z,240.26
2022-08-10T06:17:21.028Z,249.96
2022-08-10T06:18:16.310Z,259.25
2022-08-10T06:19:11.893Z,262.99
2022-08-10T06:20:07.509Z,252.46
2022-08-10T06:21:02.682Z,248.26
2022-08-10T06:22:01.149Z,249.58
2022-08-10T06:22:53.521Z,253.24
2022-08-10T06:23:49.082Z,256.01
2022-08-10T06:25:10.085Z,257.82
2022-08-10T06:26:11.213Z,250.35
2022-08-10T06:26:36.339Z,241.15
2022-08-10T06:27:34.741Z,255.81
2022-08-10T06:28:27.487Z,255.61
2022-08-10T06:29:22.956Z,266.19
2022-08-10T06:30:19.980Z,277.68
2022-08-10T06:31:13.040Z,278.86
2022-08-10T06:32:08.090Z,274.20
2022-08-10T06:33:03.099Z,263.41
2022-08-10T06:33:58.430Z,267.93
2022-08-10T06:34:53.349Z,268.14
2022-08-10T06:35:48.524Z,277.21
2022-08-10T06:36:44.376Z,269.24
2022-08-10T06:37:39.393Z,280.05
2022-08-10T06:38:34.515Z,280.77
2022-08-10T06:39:34.148Z,292.53
2022-08-10T06:40:26.740Z,300.29
2022-08-10T06:41:20.926Z,304.47
2022-08-10T06:42:17.875Z,298.11
2022-08-10T06:43:11.782Z,297.84
2022-08-10T06:44:07.208Z,299.74
2022-08-10T06:45:02.765Z,295.43
2022-08-10T06:46:07.513Z,309.94
2022-08-10T06:46:54.641Z,308.77
2022-08-10T06:47:49.170Z,325.30
2022-08-10T06:48:44.614Z,337.00
2022-08-10T06:49:40.090Z,322.11
2022-08-10T06:50:55.899Z,322.74
2022-08-10T06:51:31.999Z,317.74
2022-08-10T06:52:26.411Z,322.74
2022-08-10T06:53:21.424Z,317.74
2022-08-10T06:54:16.465Z,313.19
2022-08-10T06:55:11.667Z,313.79
2022-08-10T06:56:06.652Z,329.22
2022-08-10T06:57:17.802Z,345.15
2022-08-10T06:58:00.107Z,353.33
2022-08-10T06:58:51.913Z,348.82
2022-08-10T06:59:49.373Z,352.95
2022-08-10T07:00:44.533Z,341.20
2022-08-10T07:01:39.517Z,324.98
2022-08-10T07:02:34.516Z,321.16
2022-08-10T07:03:29.537Z,320.85
2022-08-10T07:04:32.823Z,321.79
2022-08-10T07:05:21.099Z,327.90
2022-08-10T07:06:15.480Z,325.30
2022-08-10T07:07:10.928Z,321.16
2022-08-10T07:08:06.385Z,331.55
2022-08-10T07:09:01.812Z,342.98
2022-08-10T07:09:57.335Z,352.57
2022-08-10T07:10:52.707Z,355.62
2022-08-10T07:11:48.110Z,371.74
2022-08-10T07:12:43.557Z,364.31
2022-08-10T07:14:16.732Z,373.43
2022-08-10T07:14:35.430Z,378.17
2022-08-10T07:15:59.596Z,377.73
2022-08-10T07:16:26.538Z,365.93
2022-08-10T07:17:20.940Z,370.90
2022-08-10T07:18:16.478Z,371.74
2022-08-10T07:19:11.911Z,369.64
2022-08-10T07:20:07.388Z,348.82
2022-08-10T07:21:02.880Z,335.96
2022-08-10T07:21:58.302Z,339.44
2022-08-10T07:23:01.619Z,339.79
2022-08-10T07:23:57.634Z,345.15
2022-08-10T07:24:45.664Z,332.22
2022-08-10T07:25:39.656Z,316.52
2022-08-10T07:26:34.804Z,332.22
2022-08-10T07:27:29.864Z,350.68
2022-08-10T07:28:25.974Z,343.34
2022-08-10T07:29:52.688Z,345.88
2022-08-10T07:30:16.055Z,355.24
2022-08-10T07:31:49.303Z,339.08
2022-08-10T07:32:06.240Z,350.68
2022-08-10T07:33:00.344Z,366.34
2022-08-10T07:33:55.332Z,382.80
2022-08-10T07:34:50.321Z,376.00
2022-08-10T07:35:45.362Z,365.12
2022-08-10T07:36:40.345Z,371.32
2022-08-10T07:37:35.362Z,400.02
2022-08-10T07:38:30.642Z,386.12
2022-08-10T07:40:02.131Z,369.23
2022-08-10T07:40:21.983Z,364.71
2022-08-10T07:41:15.829Z,354.09
2022-08-10T07:42:11.434Z,368.81
2022-08-10T07:43:06.706Z,366.34
2022-08-10T07:44:02.288Z,367.16
2022-08-10T07:44:57.822Z,381.92
2022-08-10T07:45:53.387Z,364.31
2022-08-10T07:46:48.923Z,381.48
2022-08-10T07:47:53.861Z,372.16
2022-08-10T07:48:40.942Z,354.09
2022-08-10T07:49:35.516Z,356.78
2022-08-10T07:50:33.098Z,339.79
2022-08-10T07:51:27.349Z,341.91
2022-08-10T07:52:22.219Z,371.32
2022-08-10T07:53:17.818Z,376.43
2022-08-10T07:54:13.205Z,377.73
2022-08-10T07:55:08.688Z,396.69
2022-08-10T07:56:20.949Z,394.11
2022-08-10T07:57:00.664Z,421.51
2022-08-10T07:57:55.029Z,448.74
2022-08-10T07:58:51.778Z,440.15
2022-08-10T07:59:46.169Z,409.85
2022-08-10T08:00:41.590Z,366.75
2022-08-10T08:01:37.183Z,379.75
2022-08-10T08:02:33.235Z,395.04
2022-08-10T08:03:27.886Z,416.51
2022-08-10T08:04:23.423Z,413.67
2022-08-10T08:05:57.680Z,396.92
2022-08-10T08:06:15.423Z,415.21
2022-08-10T08:07:09.878Z,448.74
2022-08-10T08:08:05.503Z,449.35
2022-08-10T08:09:00.818Z,450.87
2022-08-10T08:09:57.018Z,459.57
2022-08-10T08:10:51.865Z,452.70
2022-08-10T08:11:47.311Z,437.27
2022-08-10T08:12:42.691Z,478.36
2022-08-10T08:13:38.294Z,471.93
2022-08-10T08:14:37.753Z,508.64
2022-08-10T08:16:20.669Z,507.10
2022-08-10T08:16:29.726Z,513.74
2022-08-10T08:17:24.111Z,538.20
2022-08-10T08:18:25.227Z,499.50
2022-08-10T08:19:37.429Z,492.86
2022-08-10T08:20:11.538Z,456.42
2022-08-10T08:21:09.345Z,482.86
2022-08-10T08:24:04.649Z,559.89
2022-08-10T08:24:06.695Z,560.84
2022-08-10T08:24:06.696Z,543.91
2022-08-10T08:24:48.860Z,540.82
2022-08-10T08:25:43.350Z,522.19
2022-08-10T08:26:38.930Z,537.34
2022-08-10T08:27:34.455Z,557.55
2022-08-10T08:28:29.649Z,560.84
2022-08-10T08:29:24.490Z,552.93
2022-08-10T08:30:26.823Z,572.88
2022-08-10T08:31:15.666Z,580.36
2022-08-10T08:32:09.749Z,599.67
2022-08-10T08:33:04.845Z,630.87
2022-08-10T08:34:00.049Z,627.31
2022-08-10T08:34:55.050Z,631.47
2022-08-10T08:35:50.067Z,643.04
2022-08-10T08:36:45.093Z,645.53
2022-08-10T08:38:32.517Z,702.67
2022-08-10T08:38:36.253Z,687.46
2022-08-10T08:39:30.215Z,701.19
2022-08-10T08:40:25.239Z,686.04
2022-08-10T08:41:21.039Z,685.34
2022-08-10T08:42:16.478Z,699.72
2022-08-10T08:43:11.998Z,687.46
2022-08-10T08:44:07.546Z,686.04
2022-08-10T08:45:02.978Z,691.74
2022-08-10T08:46:01.165Z,741.75
2022-08-10T08:46:59.391Z,742.58
2022-08-10T08:48:04.149Z,752.96
2022-08-10T08:48:46.218Z,806.65
2022-08-10T08:50:09.075Z,849.78
2022-08-10T08:50:36.918Z,847.08
2022-08-10T08:52:08.002Z,789.01
2022-08-10T08:52:28.547Z,806.16
2022-08-10T08:53:23.014Z,859.07
2022-08-10T08:54:17.991Z,900.81
2022-08-10T08:56:03.060Z,882.94
2022-08-10T08:56:08.995Z,882.94
2022-08-10T08:57:03.057Z,835.94
2022-08-10T08:57:58.063Z,822.55
2022-08-10T08:58:53.176Z,831.78
2022-08-10T08:59:48.349Z,803.73
2022-08-10T09:00:45.264Z,837.52
2022-08-10T09:01:41.435Z,855.77
2022-08-10T09:02:36.375Z,849.24
2022-08-10T09:03:31.779Z,877.14
2022-08-10T09:04:27.290Z,862.96
2022-08-10T09:05:22.750Z,860.73
2022-08-10T09:06:18.049Z,854.13
2022-08-10T09:08:00.510Z,913.13
2022-08-10T09:08:10.624Z,869.71
2022-08-10T09:09:05.091Z,911.26
2022-08-10T09:10:00.631Z,940.80
2022-08-10T09:10:56.173Z,969.50
2022-08-10T09:11:51.780Z,1022.21
2022-08-10T09:12:47.107Z,1056.17
2022-08-10T09:13:42.627Z,1092.47
2022-08-10T09:14:37.647Z,1057.01
2022-08-10T09:15:40.544Z,1011.36
2022-08-10T09:16:28.795Z,1025.35
2022-08-10T09:17:22.831Z,1058.68
2022-08-10T09:18:17.844Z,1066.29
2022-08-10T09:19:28.414Z,1106.05
2022-08-10T09:20:08.952Z,1172.08
2022-08-10T09:21:03.083Z,1202.70
2022-08-10T09:22:12.975Z,1213.64
2022-08-10T09:22:57.374Z,1307.54
2022-08-10T09:24:04.495Z,1302.44
2022-08-10T09:24:45.335Z,1247.66
2022-08-10T09:25:39.736Z,1255.88
2022-08-10T09:26:35.191Z,1264.20
2022-08-10T09:27:30.683Z,1224.77
2022-08-10T09:28:26.544Z,1199.46
2022-08-10T09:29:21.650Z,1151.85
2022-08-10T09:30:16.778Z,1210.33
2022-08-10T09:31:21.847Z,1186.67
2022-08-10T09:36:16.604Z,1203.79
2022-08-10T09:36:20.092Z,1180.37
2022-08-10T09:36:20.696Z,1250.00
2022-08-10T09:36:22.444Z,1396.44
2022-08-10T09:36:24.405Z,1329.68
2022-08-10T09:36:43.657Z,1444.81
2022-08-10T09:37:40.066Z,1408.23
2022-08-10T09:38:34.661Z,1470.26
2022-08-10T09:40:06.860Z,1532.72
2022-08-10T09:40:59.562Z,1568.74
2022-08-10T09:41:21.604Z,1546.03
2022-08-10T09:42:15.864Z,1584.57
2022-08-10T09:43:25.289Z,1578.01
2022-08-10T09:44:09.008Z,1508.47
2022-08-10T09:45:03.711Z,1502.53
2022-08-10T09:45:59.211Z,1194.10
2022-08-10T09:46:54.796Z,1286.13
2022-08-10T09:48:02.225Z,1462.21
2022-08-10T09:48:47.022Z,1540.68
2022-08-10T09:49:59.797Z,1557.76
2022-08-10T09:51:22.366Z,1555.94
2022-08-10T09:51:45.259Z,1513.60
2022-08-10T09:52:27.512Z,1341.71
2022-08-10T09:53:21.525Z,1219.18
2022-08-10T09:54:16.607Z,1215.85
2022-08-10T09:55:11.695Z,1224.77
2022-08-10T09:56:17.548Z,1405.26
2022-08-10T09:57:43.439Z,1554.13
2022-08-10T09:57:59.038Z,1645.10
2022-08-10T09:59:27.210Z,1796.77
2022-08-10T10:00:00.442Z,1830.02
2022-08-10T10:00:43.886Z,1807.72
2022-08-10T10:02:03.919Z,1668.75
2022-08-10T10:02:34.067Z,1591.18
2022-08-10T10:03:28.237Z,1615.24
2022-08-10T10:04:23.615Z,1572.44
2022-08-10T10:05:19.080Z,1572.44
2022-08-10T10:06:14.830Z,1517.05
2022-08-10T10:07:10.430Z,1507.62
2022-08-10T10:08:06.331Z,1596.89
2022-08-10T10:09:10.077Z,1654.28
2022-08-10T10:09:58.383Z,1625.08
2022-08-10T10:10:53.040Z,1713.74
2022-08-10T10:11:48.464Z,1813.86
2022-08-10T10:12:44.064Z,1888.26
2022-08-10T10:14:01.744Z,1927.80
2022-08-10T10:14:36.652Z,1967.58
2022-08-10T10:15:31.447Z,2089.20
2022-08-10T10:16:26.940Z,2092.48
2022-08-10T10:17:22.369Z,2132.59
2022-08-10T10:18:18.144Z,2172.50
2022-08-10T10:19:13.610Z,2213.93
2022-08-10T10:20:09.506Z,2167.21
2022-08-10T10:21:04.791Z,2260.80
2022-08-10T10:22:00.362Z,2266.55
2022-08-10T10:22:56.202Z,2373.33
2022-08-10T10:24:19.708Z,2420.67
2022-08-10T10:24:48.065Z,2538.02
2022-08-10T10:25:50.653Z,2449.54
2022-08-10T10:26:39.296Z,2460.83
2022-08-10T10:27:33.821Z,2538.02
2022-08-10T10:28:44.437Z,2493.00
2022-08-10T10:29:58.700Z,2582.21
2022-08-10T10:30:22.070Z,2721.71
2022-08-10T10:31:17.094Z,2769.71
2022-08-10T10:32:12.320Z,2858.67
2022-08-10T10:33:07.856Z,2834.40
2022-08-10T10:34:04.661Z,2899.02
2022-08-10T10:34:59.075Z,3046.21
2022-08-10T10:35:54.739Z,3060.17
2022-08-10T10:36:50.029Z,3016.95
2022-08-10T10:38:10.305Z,3023.78
2022-08-10T10:38:42.796Z,3011.84
2022-08-10T10:39:37.208Z,2822.41
2022-08-10T10:40:33.094Z,2654.08
2022-08-10T10:41:28.665Z,2572.25
2022-08-10T10:42:44.155Z,2648.81
2022-08-10T10:43:21.027Z,2526.02
2022-08-10T10:44:15.509Z,2589.72
2022-08-10T10:45:11.338Z,2538.02
2022-08-10T10:46:06.727Z,2422.87
2022-08-10T10:47:02.048Z,2356.57
2022-08-10T10:47:57.927Z,2272.34
2022-08-10T10:48:53.711Z,2158.45
2022-08-10T10:49:49.038Z,2301.72
2022-08-10T10:50:45.568Z,2177.81
2022-08-10T10:51:41.188Z,2190.32
2022-08-10T10:52:36.677Z,2301.72
2022-08-10T10:53:32.164Z,2447.30
2022-08-10T10:54:28.217Z,2597.28
2022-08-10T10:55:23.553Z,2597.28
2022-08-10T10:56:19.038Z,2599.80
2022-08-10T10:57:14.585Z,2787.06
2022-08-10T10:58:10.725Z,2973.27
2022-08-10T10:59:54.199Z,2899.02
2022-08-10T11:00:02.968Z,2883.37
2022-08-10T11:01:00.338Z,2950.28
2022-08-10T11:01:55.779Z,3035.82
2022-08-10T11:02:51.123Z,3072.50
2022-08-10T11:03:46.665Z,3150.44
2022-08-10T11:04:41.735Z,3331.25
2022-08-10T11:05:36.835Z,3316.77
2022-08-10T11:06:40.195Z,3254.11
2022-08-10T11:07:32.031Z,3298.33
2022-08-10T11:08:28.993Z,3388.32
2022-08-10T11:10:05.211Z,3454.07
2022-08-10T11:10:33.122Z,3581.49
2022-08-10T11:11:10.899Z,3662.55
2022-08-10T11:12:04.826Z,3752.64
2022-08-10T11:12:57.264Z,3610.55
2022-08-10T11:14:25.043Z,3396.95
2022-08-10T11:14:48.509Z,3429.67
2022-08-10T11:15:47.392Z,3552.89
2022-08-10T11:16:38.417Z,3440.72
2022-08-10T11:17:33.886Z,3545.82
2022-08-10T11:18:30.094Z,3803.42
2022-08-10T11:19:25.489Z,3744.74
2022-08-10T11:20:22.231Z,3692.95
2022-08-10T11:21:16.802Z,3836.21
2022-08-10T11:22:16.225Z,3940.96
2022-08-10T11:23:08.558Z,4024.11
2022-08-10T11:24:47.078Z,4018.06
2022-08-10T11:25:01.104Z,4082.57
2022-08-10T11:25:55.374Z,4003.00
2022-08-10T11:26:50.893Z,3985.07
2022-08-10T11:27:47.306Z,3952.63
2022-08-10T11:28:42.651Z,3875.18
2022-08-10T11:29:39.698Z,4045.46
2022-08-10T11:30:34.431Z,4082.57
2022-08-10T11:31:30.008Z,4152.41
2022-08-10T11:32:25.895Z,4165.37
2022-08-10T11:33:31.061Z,4234.73
2022-08-10T11:34:47.519Z,4201.42